createdAt,value
2023-08-10T00:01:08.520Z,20.37
2023-08-10T00:03:34.915Z,20.41
2023-08-10T00:06:01.329Z,20.37
2023-08-10T00:08:27.618Z,20.35
2023-08-10T00:10:53.895Z,20.34
2023-08-10T00:13:20.187Z,20.32
2023-08-10T00:15:46.478Z,20.34
2023-08-10T00:18:12.804Z,20.33
2023-08-10T00:20:39.108Z,20.38
2023-08-10T00:23:07.333Z,20.39
2023-08-10T00:25:34.020Z,20.37
2023-08-10T00:28:00.378Z,20.35
2023-08-10T00:30:26.744Z,20.38
2023-08-10T00:32:53.196Z,20.36
2023-08-10T00:35:19.505Z,20.39
2023-08-10T00:37:45.804Z,20.34
2023-08-10T00:40:12.070Z,20.32
2023-08-10T00:42:38.324Z,20.29
2023-08-10T00:45:04.694Z,20.21
2023-08-10T00:47:31.038Z,20.16
2023-08-10T00:49:57.421Z,20.16
2023-08-10T00:52:23.682Z,20.12
2023-08-10T00:54:49.980Z,20.07
2023-08-10T00:57:16.321Z,19.92
2023-08-10T00:59:42.634Z,19.81
2023-08-10T01:02:09.098Z,19.71
2023-08-10T01:04:35.589Z,19.62
2023-08-10T01:07:01.897Z,19.50
2023-08-10T01:09:28.128Z,19.47
2023-08-10T01:11:54.381Z,19.45
2023-08-10T01:14:20.625Z,19.42
2023-08-10T01:16:46.980Z,19.27
2023-08-10T01:19:13.360Z,19.16
2023-08-10T01:21:39.660Z,19.08
2023-08-10T01:24:05.959Z,19.04
2023-08-10T01:26:32.309Z,18.95
2023-08-10T01:28:58.689Z,18.91
2023-08-10T01:31:25.028Z,18.90
2023-08-10T01:33:51.352Z,18.88
2023-08-10T01:36:17.705Z,18.82
2023-08-10T01:38:43.966Z,18.82
2023-08-10T01:41:10.238Z,18.81
2023-08-10T01:43:36.536Z,18.80
2023-08-10T01:46:02.827Z,18.79
2023-08-10T01:48:29.110Z,18.78
2023-08-10T01:50:55.404Z,18.77
2023-08-10T01:53:21.742Z,18.80
2023-08-10T01:55:48.062Z,18.69
2023-08-10T01:58:14.375Z,18.62
2023-08-10T02:00:40.659Z,18.58
2023-08-10T02:03:06.952Z,18.52
2023-08-10T02:05:33.233Z,18.51
2023-08-10T02:07:59.519Z,18.48
2023-08-10T02:10:25.818Z,18.46
2023-08-10T02:12:52.121Z,18.48
2023-08-10T02:15:18.367Z,18.46
2023-08-10T02:17:44.713Z,18.47
2023-08-10T02:20:10.975Z,18.47
2023-08-10T02:22:37.374Z,18.44
2023-08-10T02:25:03.696Z,18.47
2023-08-10T02:27:29.940Z,18.50
2023-08-10T02:29:56.223Z,18.50
2023-08-10T02:32:22.651Z,18.53
2023-08-10T02:34:48.971Z,18.51
2023-08-10T02:37:15.216Z,18.51
2023-08-10T02:39:41.554Z,18.49
2023-08-10T02:42:07.875Z,18.46
2023-08-10T02:44:34.177Z,18.47
2023-08-10T02:47:00.561Z,18.44
2023-08-10T02:49:26.817Z,18.41
2023-08-10T02:51:53.104Z,18.37
2023-08-10T02:54:19.442Z,18.29
2023-08-10T02:56:45.769Z,18.22
2023-08-10T02:59:12.066Z,18.18
2023-08-10T03:01:38.343Z,18.14
2023-08-10T03:04:04.643Z,18.12
2023-08-10T03:06:30.933Z,18.04
2023-08-10T03:08:57.194Z,18.02
2023-08-10T03:11:23.564Z,18.03
2023-08-10T03:13:49.963Z,18.04
2023-08-10T03:16:16.262Z,18.00
2023-08-10T03:18:42.541Z,18.04
2023-08-10T03:21:08.888Z,18.07
2023-08-10T03:23:35.239Z,18.07
2023-08-10T03:26:01.494Z,18.10
2023-08-10T03:28:27.789Z,18.14
2023-08-10T03:30:54.245Z,18.10
2023-08-10T03:33:20.555Z,18.10
2023-08-10T03:35:46.880Z,18.07
2023-08-10T03:38:13.293Z,18.05
2023-08-10T03:40:39.585Z,18.06
2023-08-10T03:43:05.927Z,18.06
2023-08-10T03:45:32.208Z,18.10
2023-08-10T03:47:58.614Z,18.17
2023-08-10T03:50:24.924Z,18.21
2023-08-10T03:52:51.292Z,18.30
2023-08-10T03:55:17.558Z,18.31
2023-08-10T03:57:43.829Z,18.28
2023-08-10T04:00:10.091Z,18.21
2023-08-10T04:02:36.355Z,18.16
2023-08-10T04:05:02.657Z,18.08
2023-08-10T04:07:28.945Z,17.97
2023-08-10T04:09:55.271Z,17.87
2023-08-10T04:12:21.571Z,17.83
2023-08-10T04:14:47.868Z,17.74
2023-08-10T04:17:14.111Z,17.66
2023-08-10T04:19:40.366Z,17.63
2023-08-10T04:22:06.825Z,17.57
2023-08-10T04:24:33.239Z,17.49
2023-08-10T04:26:59.609Z,17.41
2023-08-10T04:29:25.894Z,17.33
2023-08-10T04:31:52.190Z,17.28
2023-08-10T04:34:18.507Z,17.25
2023-08-10T04:36:44.825Z,17.26
2023-08-10T04:39:11.113Z,17.27
2023-08-10T04:41:37.372Z,17.27
2023-08-10T04:44:03.619Z,17.30
2023-08-10T04:46:29.933Z,17.34
2023-08-10T04:48:56.249Z,17.36
2023-08-10T04:51:22.605Z,17.39
2023-08-10T04:53:48.931Z,17.44
2023-08-10T04:56:17.482Z,17.49
2023-08-10T04:58:44.843Z,17.53
2023-08-10T05:01:11.171Z,17.59
2023-08-10T05:03:37.531Z,17.70
2023-08-10T05:06:03.840Z,17.78
2023-08-10T05:08:30.167Z,17.86
2023-08-10T05:10:56.519Z,17.94
2023-08-10T05:13:22.811Z,18.03
2023-08-10T05:15:49.125Z,18.10
2023-08-10T05:18:15.437Z,18.23
2023-08-10T05:20:41.780Z,18.37
2023-08-10T05:23:09.753Z,18.49
2023-08-10T05:25:36.081Z,18.57
2023-08-10T05:28:02.590Z,18.64
2023-08-10T05:30:29.018Z,18.71
2023-08-10T05:32:55.433Z,18.77
2023-08-10T05:35:22.238Z,18.82
2023-08-10T05:37:48.904Z,18.91
2023-08-10T05:40:15.334Z,18.94
2023-08-10T05:42:41.744Z,19.05
2023-08-10T05:45:08.434Z,19.12
2023-08-10T05:47:35.190Z,19.21
2023-08-10T05:50:02.061Z,19.32
2023-08-10T05:52:28.538Z,19.45
2023-08-10T05:54:55.295Z,19.56
2023-08-10T05:57:21.679Z,19.65
2023-08-10T05:59:48.093Z,19.73
2023-08-10T06:02:15.105Z,19.81
2023-08-10T06:04:41.658Z,19.91
2023-08-10T06:07:08.091Z,19.97
2023-08-10T06:09:34.573Z,20.04
2023-08-10T06:12:01.647Z,20.13
2023-08-10T06:14:28.463Z,20.19
2023-08-10T06:16:54.910Z,20.28
2023-08-10T06:19:21.254Z,20.42
2023-08-10T06:21:47.664Z,20.56
2023-08-10T06:24:14.017Z,20.63
2023-08-10T06:26:40.763Z,20.78
2023-08-10T06:29:07.282Z,20.84
2023-08-10T06:31:34.088Z,20.91
2023-08-10T06:34:00.513Z,21.03
2023-08-10T06:36:26.905Z,21.13
2023-08-10T06:38:53.363Z,21.22
2023-08-10T06:41:19.724Z,21.32
2023-08-10T06:43:46.035Z,21.41
2023-08-10T06:46:12.335Z,21.51
2023-08-10T06:48:38.767Z,21.59
2023-08-10T06:51:05.602Z,21.62
2023-08-10T06:53:31.952Z,21.72
2023-08-10T06:55:59.155Z,21.85
2023-08-10T07:00:55.315Z,22.02
2023-08-10T07:03:22.266Z,22.06
2023-08-10T07:05:49.641Z,22.19
2023-08-10T07:08:16.657Z,22.30
2023-08-10T07:10:43.433Z,22.41
2023-08-10T07:13:09.762Z,22.54
2023-08-10T07:15:36.208Z,22.58
2023-08-10T07:18:05.160Z,22.61
2023-08-10T07:20:32.995Z,22.70
2023-08-10T07:22:59.965Z,22.81
2023-08-10T07:25:26.292Z,22.93
2023-08-10T07:27:52.692Z,23.05
2023-08-10T07:30:19.164Z,23.15
2023-08-10T07:32:45.613Z,23.22
2023-08-10T07:35:12.018Z,23.27
2023-08-10T07:37:38.451Z,23.32
2023-08-10T07:40:04.746Z,23.37
2023-08-10T07:42:31.044Z,23.49
2023-08-10T07:44:57.484Z,23.60
2023-08-10T07:47:23.788Z,23.63
2023-08-10T07:49:50.179Z,23.65
2023-08-10T07:52:16.531Z,23.73
2023-08-10T07:54:42.928Z,23.76
2023-08-10T07:57:09.196Z,23.82
2023-08-10T07:59:35.508Z,23.94
2023-08-10T08:02:01.925Z,23.99
2023-08-10T08:04:28.489Z,24.10
2023-08-10T08:06:54.990Z,24.27
2023-08-10T08:09:21.624Z,24.33
2023-08-10T08:11:48.019Z,24.43
2023-08-10T08:14:14.401Z,24.58
2023-08-10T08:16:40.816Z,24.74
2023-08-10T08:19:07.202Z,24.81
2023-08-10T08:21:33.572Z,24.83
2023-08-10T08:23:59.927Z,24.94
2023-08-10T08:26:26.612Z,25.03
2023-08-10T08:28:53.073Z,25.17
2023-08-10T08:31:19.467Z,25.31
2023-08-10T08:33:45.904Z,25.49
2023-08-10T08:36:12.221Z,25.54
2023-08-10T08:38:38.842Z,25.50
2023-08-10T08:41:05.288Z,25.42
2023-08-10T08:43:31.616Z,25.50
2023-08-10T08:45:57.975Z,25.58
2023-08-10T08:48:24.771Z,25.61
2023-08-10T08:50:51.096Z,25.79
2023-08-10T08:53:17.475Z,25.91
2023-08-10T08:55:43.833Z,26.05
2023-08-10T08:58:10.242Z,26.19
2023-08-10T09:00:36.679Z,26.27
2023-08-10T09:03:03.101Z,26.27
2023-08-10T09:05:29.456Z,26.25
2023-08-10T09:07:56.222Z,26.41
2023-08-10T09:10:22.808Z,26.55
2023-08-10T09:12:49.713Z,26.71
2023-08-10T09:15:16.533Z,26.91
2023-08-10T09:17:43.039Z,27.03
2023-08-10T09:20:10.395Z,27.02
2023-08-10T09:22:36.809Z,27.12
2023-08-10T09:25:03.721Z,27.22
2023-08-10T09:27:30.203Z,27.40
2023-08-10T09:29:56.934Z,27.43
2023-08-10T09:32:23.854Z,27.67
2023-08-10T09:34:50.295Z,27.98
2023-08-10T09:37:16.598Z,28.26
2023-08-10T09:39:42.907Z,28.46
2023-08-10T09:42:09.225Z,28.53
2023-08-10T09:44:35.489Z,28.59
2023-08-10T09:47:03.096Z,28.61
2023-08-10T09:49:29.697Z,28.80
2023-08-10T09:51:56.033Z,28.89
2023-08-10T09:54:22.295Z,29.02
2023-08-10T09:56:48.606Z,29.05
2023-08-10T09:59:14.961Z,29.26
2023-08-10T10:01:41.312Z,29.49
2023-08-10T10:04:07.714Z,29.70
2023-08-10T10:06:34.130Z,29.70
2023-08-10T10:09:00.496Z,29.67
2023-08-10T10:11:26.941Z,29.59
2023-08-10T10:13:53.261Z,29.50
2023-08-10T10:16:19.700Z,29.59
2023-08-10T10:18:46.123Z,29.62
2023-08-10T10:21:12.480Z,29.69
2023-08-10T10:23:38.829Z,29.84
2023-08-10T10:26:05.171Z,30.10
2023-08-10T10:28:31.447Z,30.44
2023-08-10T10:30:57.798Z,30.69
2023-08-10T10:33:24.167Z,30.95
2023-08-10T10:35:50.436Z,31.09
2023-08-10T10:38:16.783Z,31.15
2023-08-10T10:40:43.174Z,31.32
2023-08-10T10:43:09.439Z,30.99
2023-08-10T10:45:35.763Z,30.85
2023-08-10T10:48:02.186Z,30.92
2023-08-10T10:50:28.540Z,31.17
2023-08-10T10:52:54.886Z,31.32
2023-08-10T10:55:21.253Z,31.69
2023-08-10T10:57:47.612Z,31.91
2023-08-10T11:00:14.247Z,32.23
2023-08-10T11:02:40.629Z,32.39
2023-08-10T11:05:07.336Z,32.30
2023-08-10T11:07:34.304Z,32.28
2023-08-10T11:10:01.041Z,32.43
2023-08-10T11:12:27.822Z,32.70
2023-08-10T11:14:54.194Z,32.77
2023-08-10T11:17:22.271Z,32.95
2023-08-10T11:19:48.784Z,32.87
2023-08-10T11:22:15.138Z,32.59
2023-08-10T11:24:41.504Z,32.58
2023-08-10T11:27:07.900Z,32.31
2023-08-10T11:29:34.251Z,32.23
2023-08-10T11:32:02.820Z,32.36
2023-08-10T11:34:29.507Z,32.52
2023-08-10T11:36:55.955Z,32.62
2023-08-10T11:39:22.336Z,32.60
2023-08-10T11:41:48.705Z,32.82
2023-08-10T11:44:15.068Z,32.85
2023-08-10T11:46:41.470Z,32.99
2023-08-10T11:49:07.889Z,33.26
2023-08-10T11:51:34.235Z,33.77
2023-08-10T11:54:00.507Z,33.76
2023-08-10T11:56:26.843Z,33.24
2023-08-10T11:58:53.194Z,32.88
2023-08-10T12:01:19.644Z,32.43
2023-08-10T12:03:46.018Z,32.11
2023-08-10T12:06:12.489Z,32.21
2023-08-10T12:08:38.894Z,31.94
2023-08-10T12:11:06.396Z,31.76
2023-08-10T12:13:32.892Z,31.65
2023-08-10T12:15:59.181Z,32.03
2023-08-10T12:18:25.663Z,32.56
2023-08-10T12:20:52.056Z,32.56
2023-08-10T12:23:18.387Z,32.83
2023-08-10T12:25:44.677Z,33.02
2023-08-10T12:28:10.970Z,33.40
2023-08-10T12:30:37.222Z,33.37
2023-08-10T12:33:03.585Z,33.08
2023-08-10T12:35:29.961Z,32.95
2023-08-10T12:37:56.420Z,32.79
2023-08-10T12:40:22.713Z,32.71
2023-08-10T12:42:49.086Z,32.62
2023-08-10T12:45:15.336Z,32.60
2023-08-10T12:47:41.671Z,32.88
2023-08-10T12:50:07.976Z,32.71
2023-08-10T12:52:34.301Z,32.97
2023-08-10T12:55:00.816Z,33.03
2023-08-10T12:57:27.223Z,32.99
2023-08-10T12:59:53.550Z,32.76
2023-08-10T13:02:31.665Z,32.53
2023-08-10T13:05:00.100Z,32.55
2023-08-10T13:07:26.475Z,32.46
2023-08-10T13:09:52.836Z,32.34
2023-08-10T13:12:19.242Z,32.03
2023-08-10T13:14:45.689Z,32.00
2023-08-10T13:17:12.159Z,31.84
2023-08-10T13:19:38.523Z,31.66
2023-08-10T13:22:05.577Z,31.64
2023-08-10T13:24:32.170Z,31.50
2023-08-10T13:26:58.457Z,31.73
2023-08-10T13:29:25.097Z,32.12
2023-08-10T13:31:51.616Z,32.04
2023-08-10T13:34:18.378Z,32.23
2023-08-10T13:36:44.872Z,32.07
2023-08-10T13:39:11.209Z,32.16
2023-08-10T13:41:37.524Z,32.16
2023-08-10T13:44:04.313Z,31.91
2023-08-10T13:46:30.636Z,31.88
2023-08-10T13:48:56.894Z,32.04
2023-08-10T13:51:23.218Z,32.17
2023-08-10T13:53:49.593Z,31.99
2023-08-10T13:56:15.943Z,31.68
2023-08-10T13:58:42.311Z,31.74
2023-08-10T14:01:08.750Z,31.53
2023-08-10T14:03:35.202Z,31.40
2023-08-10T14:06:01.729Z,31.49
2023-08-10T14:08:28.062Z,31.37
2023-08-10T14:10:54.367Z,31.21
2023-08-10T14:13:21.241Z,31.08
2023-08-10T14:15:48.167Z,30.98
2023-08-10T14:18:14.569Z,31.26
2023-08-10T14:20:41.410Z,31.48
2023-08-10T14:23:08.430Z,31.87
2023-08-10T14:25:35.390Z,31.93
2023-08-10T14:28:02.190Z,31.76
2023-08-10T14:30:29.501Z,31.80
2023-08-10T14:32:56.245Z,31.68
2023-08-10T14:35:22.806Z,31.89
2023-08-10T14:37:49.850Z,32.00
2023-08-10T14:40:16.734Z,31.99
2023-08-10T14:42:43.645Z,31.91
2023-08-10T14:45:10.850Z,31.83
2023-08-10T14:47:37.970Z,31.86
2023-08-10T14:50:04.835Z,32.17
2023-08-10T14:52:32.603Z,32.41
2023-08-10T14:55:08.369Z,32.63
2023-08-10T14:57:43.374Z,33.21
2023-08-10T15:00:10.242Z,32.95
2023-08-10T15:02:37.120Z,32.89
2023-08-10T15:05:03.807Z,33.22
2023-08-10T15:07:31.182Z,32.93
2023-08-10T15:09:57.579Z,32.82
2023-08-10T15:12:23.899Z,33.08
2023-08-10T15:14:50.219Z,33.54
2023-08-10T15:17:16.557Z,33.76
2023-08-10T15:19:43.275Z,33.42
2023-08-10T15:22:09.802Z,33.12
2023-08-10T15:24:36.715Z,33.29
2023-08-10T15:27:03.621Z,33.17
2023-08-10T15:29:30.660Z,33.22
2023-08-10T15:31:57.505Z,33.08
2023-08-10T15:34:24.219Z,33.49
2023-08-10T15:36:51.096Z,33.20
2023-08-10T15:39:18.369Z,33.49
2023-08-10T15:41:46.106Z,33.33
2023-08-10T15:44:13.778Z,33.22
2023-08-10T15:46:40.732Z,32.80
2023-08-10T15:49:07.574Z,32.52
2023-08-10T15:51:34.534Z,32.06
2023-08-10T15:54:01.409Z,32.01
2023-08-10T15:56:28.094Z,31.53
2023-08-10T15:58:54.720Z,31.52
2023-08-10T16:01:22.181Z,31.19
2023-08-10T16:03:48.871Z,30.83
2023-08-10T16:06:15.764Z,30.35
2023-08-10T16:08:42.813Z,29.85
2023-08-10T16:11:09.864Z,29.41
2023-08-10T16:13:36.804Z,29.35
2023-08-10T16:16:04.138Z,29.08
2023-08-10T16:18:31.062Z,29.04
2023-08-10T16:20:57.594Z,28.79
2023-08-10T16:23:24.402Z,28.66
2023-08-10T16:25:52.151Z,28.81
2023-08-10T16:28:19.249Z,29.55
2023-08-10T16:30:45.593Z,30.40
2023-08-10T16:33:12.376Z,30.94
2023-08-10T16:35:39.072Z,31.41
2023-08-10T16:38:05.858Z,31.83
2023-08-10T16:40:32.800Z,32.02
2023-08-10T16:42:59.460Z,32.04
2023-08-10T16:45:26.340Z,32.06
2023-08-10T16:47:52.857Z,32.03
2023-08-10T16:50:19.202Z,32.00
2023-08-10T16:52:45.549Z,31.99
2023-08-10T16:55:11.892Z,31.90
2023-08-10T16:57:38.299Z,31.88
2023-08-10T17:00:04.644Z,31.69
2023-08-10T17:02:31.111Z,31.59
2023-08-10T17:04:57.610Z,31.53
2023-08-10T17:07:23.934Z,31.48
2023-08-10T17:09:50.282Z,31.39
2023-08-10T17:12:16.704Z,31.31
2023-08-10T17:14:43.004Z,31.26
2023-08-10T17:17:09.318Z,31.23
2023-08-10T17:19:35.705Z,31.06
2023-08-10T17:22:02.117Z,30.98
2023-08-10T17:24:28.449Z,30.96
2023-08-10T17:26:54.785Z,30.83
2023-08-10T17:29:21.894Z,30.72
2023-08-10T17:31:48.347Z,30.54
2023-08-10T17:34:14.702Z,30.41
2023-08-10T17:36:41.051Z,30.24
2023-08-10T17:39:07.370Z,30.05
2023-08-10T17:41:33.742Z,29.90
2023-08-10T17:44:00.052Z,29.70
2023-08-10T17:46:26.347Z,29.56
2023-08-10T17:48:52.639Z,29.36
2023-08-10T17:51:18.870Z,29.16
2023-08-10T17:53:45.290Z,29.03
2023-08-10T17:56:11.554Z,28.89
2023-08-10T17:58:37.921Z,28.68
2023-08-10T18:01:04.245Z,28.46
2023-08-10T18:03:30.639Z,28.26
2023-08-10T18:05:56.977Z,28.07
2023-08-10T18:08:23.325Z,27.86
2023-08-10T18:10:51.662Z,27.78
2023-08-10T18:13:18.233Z,27.76
2023-08-10T18:15:44.579Z,27.53
2023-08-10T18:18:10.886Z,27.24
2023-08-10T18:20:37.214Z,26.98
2023-08-10T18:23:03.538Z,26.73
2023-08-10T18:25:29.871Z,26.55
2023-08-10T18:27:56.217Z,26.34
2023-08-10T18:30:22.565Z,26.19
2023-08-10T18:32:48.924Z,26.04
2023-08-10T18:35:15.325Z,25.89
2023-08-10T18:37:41.645Z,25.76
2023-08-10T18:40:08.031Z,25.67
2023-08-10T18:42:34.392Z,25.62
2023-08-10T18:45:00.821Z,25.54
2023-08-10T18:47:27.234Z,25.41
2023-08-10T18:49:53.534Z,25.31
2023-08-10T18:52:19.877Z,25.25
2023-08-10T18:54:46.210Z,25.22
2023-08-10T18:57:13.013Z,25.17
2023-08-10T18:59:39.806Z,25.08
2023-08-10T19:02:07.073Z,25.03
2023-08-10T19:04:34.128Z,25.08
2023-08-10T19:07:00.628Z,25.12
2023-08-10T19:09:27.280Z,25.14
2023-08-10T19:11:54.174Z,25.16
2023-08-10T19:14:21.300Z,25.19
2023-08-10T19:16:48.332Z,25.19
2023-08-10T19:19:14.800Z,25.15
2023-08-10T19:21:41.656Z,25.07
2023-08-10T19:24:10.632Z,25.05
2023-08-10T19:26:37.412Z,25.05
2023-08-10T19:29:03.794Z,25.03
2023-08-10T19:31:30.580Z,25.06
2023-08-10T19:33:56.946Z,25.06
2023-08-10T19:36:23.733Z,25.04
2023-08-10T19:38:50.631Z,25.00
2023-08-10T19:41:17.568Z,24.95
2023-08-10T19:43:44.433Z,24.93
2023-08-10T19:46:11.437Z,24.93
2023-08-10T19:48:39.672Z,24.88
2023-08-10T19:51:06.359Z,24.81
2023-08-10T19:53:33.341Z,24.75
2023-08-10T19:56:00.032Z,24.77
2023-08-10T19:58:26.869Z,24.80
2023-08-10T20:00:53.792Z,24.84
2023-08-10T20:03:20.719Z,24.81
2023-08-10T20:05:47.803Z,24.74
2023-08-10T20:08:14.900Z,24.67
2023-08-10T20:10:44.224Z,24.62
2023-08-10T20:13:11.104Z,24.54
2023-08-10T20:15:37.967Z,24.47
2023-08-10T20:18:05.528Z,24.33
2023-08-10T20:20:32.244Z,24.23
2023-08-10T20:22:59.134Z,24.18
2023-08-10T20:25:26.190Z,24.18
2023-08-10T20:27:53.378Z,24.12
2023-08-10T20:30:20.252Z,24.09
2023-08-10T20:32:47.015Z,24.00
2023-08-10T20:35:14.015Z,23.88
2023-08-10T20:37:43.860Z,23.75
2023-08-10T20:40:11.293Z,23.72
2023-08-10T20:42:38.040Z,23.67
2023-08-10T20:45:05.039Z,23.64
2023-08-10T20:47:31.713Z,23.60
2023-08-10T20:49:58.649Z,23.57
2023-08-10T20:52:27.216Z,23.60
2023-08-10T20:54:54.042Z,23.62
2023-08-10T20:57:20.806Z,23.61
2023-08-10T20:59:47.935Z,23.56
2023-08-10T21:02:17.682Z,23.56
2023-08-10T21:04:44.455Z,23.49
2023-08-10T21:07:11.229Z,23.40
2023-08-10T21:09:37.900Z,23.33
2023-08-10T21:12:04.829Z,23.30
2023-08-10T21:14:31.848Z,23.20
2023-08-10T21:16:58.769Z,23.17
2023-08-10T21:19:25.665Z,23.09
2023-08-10T21:21:52.790Z,23.08
2023-08-10T21:24:19.564Z,23.15
2023-08-10T21:26:46.503Z,23.19
2023-08-10T21:29:13.478Z,23.22
2023-08-10T21:31:40.368Z,23.23
2023-08-10T21:34:07.470Z,23.27
2023-08-10T21:36:34.489Z,23.27
2023-08-10T21:39:01.528Z,23.27
2023-08-10T21:41:28.434Z,23.22
2023-08-10T21:43:55.567Z,23.18
2023-08-10T21:46:22.403Z,23.11
2023-08-10T21:48:49.160Z,23.08
2023-08-10T21:51:15.818Z,23.11
2023-08-10T21:53:42.491Z,23.15
2023-08-10T21:56:09.965Z,23.15
2023-08-10T21:58:36.822Z,23.18
2023-08-10T22:01:03.866Z,23.22
2023-08-10T22:03:30.948Z,23.23
2023-08-10T22:05:57.723Z,23.21
2023-08-10T22:08:24.488Z,23.16
2023-08-10T22:10:51.288Z,23.12
2023-08-10T22:13:18.162Z,23.07
2023-08-10T22:15:45.187Z,22.95
2023-08-10T22:18:12.232Z,22.93
2023-08-10T22:20:39.349Z,22.96
2023-08-10T22:23:06.292Z,22.94
2023-08-10T22:25:33.333Z,22.95
2023-08-10T22:28:01.032Z,22.91
2023-08-10T22:30:28.042Z,22.85
2023-08-10T22:32:55.438Z,22.82
2023-08-10T22:35:22.305Z,22.82
2023-08-10T22:37:49.869Z,22.82
2023-08-10T22:40:16.831Z,22.81
2023-08-10T22:42:43.868Z,22.82
2023-08-10T22:45:10.854Z,22.88
2023-08-10T22:47:37.866Z,22.89
2023-08-10T22:50:04.543Z,22.84
2023-08-10T22:52:31.007Z,22.79
2023-08-10T22:54:57.253Z,22.75
2023-08-10T22:57:23.569Z,22.74
2023-08-10T22:59:49.885Z,22.72
2023-08-10T23:02:16.220Z,22.70
2023-08-10T23:04:42.527Z,22.71
2023-08-10T23:07:08.766Z,22.73
2023-08-10T23:09:35.074Z,22.71
2023-08-10T23:12:01.355Z,22.68
2023-08-10T23:14:27.643Z,22.70
2023-08-10T23:16:53.896Z,22.69
2023-08-10T23:19:20.155Z,22.68
2023-08-10T23:21:46.440Z,22.64
2023-08-10T23:24:12.760Z,22.63
2023-08-10T23:26:39.057Z,22.59
2023-08-10T23:29:05.341Z,22.56
2023-08-10T23:31:31.777Z,22.52
2023-08-10T23:33:58.102Z,22.45
2023-08-10T23:36:24.329Z,22.33
2023-08-10T23:38:50.685Z,22.30
2023-08-10T23:41:16.995Z,22.26
2023-08-10T23:43:43.348Z,22.23
2023-08-10T23:46:09.629Z,22.25
2023-08-10T23:48:35.910Z,22.28
2023-08-10T23:51:02.248Z,22.26
2023-08-10T23:53:28.500Z,22.24
2023-08-10T23:55:54.997Z,22.25
2023-08-10T23:58:37.642Z,22.22
